createdAt,value
2022-11-10T00:01:08.817Z,2.20
2022-11-10T00:03:36.453Z,2.37
2022-11-10T00:06:09.411Z,2.40
2022-11-10T00:08:36.504Z,2.27
2022-11-10T00:11:07.866Z,2.60
2022-11-10T00:13:57.180Z,2.67
2022-11-10T00:16:42.568Z,2.47
2022-11-10T00:19:09.228Z,2.47
2022-11-10T00:21:37.167Z,2.23
2022-11-10T00:24:04.424Z,2.50
2022-11-10T00:26:31.502Z,2.20
2022-11-10T00:28:57.986Z,2.23
2022-11-10T00:31:24.568Z,2.17
2022-11-10T00:33:51.020Z,2.27
2022-11-10T00:36:17.425Z,2.20
2022-11-10T00:38:43.937Z,2.03
2022-11-10T00:41:10.373Z,1.80
2022-11-10T00:43:36.746Z,2.00
2022-11-10T00:46:03.301Z,2.40
2022-11-10T00:48:29.853Z,2.40
2022-11-10T00:50:56.776Z,2.13
2022-11-10T00:53:23.626Z,1.90
2022-11-10T00:55:50.341Z,2.33
2022-11-10T00:58:16.779Z,2.30
2022-11-10T01:00:43.392Z,2.10
2022-11-10T01:03:14.888Z,2.90
2022-11-10T01:05:41.908Z,2.40
2022-11-10T01:08:08.369Z,2.90
2022-11-10T01:10:35.120Z,2.13
2022-11-10T01:13:01.873Z,2.23
2022-11-10T01:15:28.343Z,2.63
2022-11-10T01:17:56.115Z,3.30
2022-11-10T01:20:23.858Z,2.70
2022-11-10T01:22:50.271Z,2.37
2022-11-10T01:25:16.700Z,2.40
2022-11-10T01:27:43.134Z,2.50
2022-11-10T01:30:09.968Z,2.13
2022-11-10T01:32:36.407Z,2.27
2022-11-10T01:35:02.898Z,2.07
2022-11-10T01:37:29.369Z,2.10
2022-11-10T01:39:55.811Z,1.80
2022-11-10T01:42:27.355Z,2.00
2022-11-10T01:45:25.097Z,2.10
2022-11-10T01:48:02.780Z,2.03
2022-11-10T01:50:32.864Z,2.50
2022-11-10T01:53:02.759Z,2.17
2022-11-10T01:55:31.061Z,1.90
2022-11-10T01:57:57.932Z,2.27
2022-11-10T02:00:24.857Z,1.97
2022-11-10T02:03:07.376Z,2.13
2022-11-10T02:05:34.626Z,2.00
2022-11-10T02:08:02.362Z,2.10
2022-11-10T02:10:28.868Z,2.23
2022-11-10T02:12:55.309Z,1.80
2022-11-10T02:15:22.179Z,2.00
2022-11-10T02:17:49.028Z,2.10
2022-11-10T02:20:18.968Z,3.30
2022-11-10T02:22:45.414Z,2.23
2022-11-10T02:25:16.728Z,2.00
2022-11-10T02:27:43.224Z,2.10
2022-11-10T02:30:10.065Z,2.10
2022-11-10T02:32:36.637Z,2.40
2022-11-10T02:35:03.754Z,2.10
2022-11-10T02:37:30.225Z,2.07
2022-11-10T02:39:56.639Z,2.33
2022-11-10T02:42:23.232Z,1.90
2022-11-10T02:44:49.604Z,2.50
2022-11-10T02:47:15.953Z,2.20
2022-11-10T02:49:42.396Z,2.27
2022-11-10T02:52:08.792Z,2.00
2022-11-10T02:54:35.128Z,2.13
2022-11-10T02:57:02.716Z,2.10
2022-11-10T02:59:29.128Z,2.50
2022-11-10T03:01:55.708Z,1.90
2022-11-10T03:04:22.114Z,2.20
2022-11-10T03:06:48.574Z,2.27
2022-11-10T03:09:15.033Z,2.20
2022-11-10T03:11:41.453Z,2.27
2022-11-10T03:14:07.843Z,2.13
2022-11-10T03:16:34.218Z,2.17
2022-11-10T03:19:00.682Z,2.07
2022-11-10T03:21:27.100Z,2.30
2022-11-10T03:23:53.525Z,2.13
2022-11-10T03:26:19.997Z,2.10
2022-11-10T03:28:46.437Z,2.13
2022-11-10T03:31:12.829Z,2.83
2022-11-10T03:33:39.375Z,1.93
2022-11-10T03:36:05.908Z,1.97
2022-11-10T03:38:32.333Z,2.30
2022-11-10T03:43:45.282Z,2.27
2022-11-10T03:46:11.784Z,2.17
2022-11-10T03:48:38.218Z,2.17
2022-11-10T03:51:04.835Z,2.13
2022-11-10T03:53:31.196Z,2.50
2022-11-10T03:56:01.735Z,2.20
2022-11-10T03:58:28.173Z,1.90
2022-11-10T04:00:55.723Z,2.23
2022-11-10T04:03:23.445Z,1.97
2022-11-10T04:06:08.849Z,2.10
2022-11-10T04:08:54.111Z,2.00
2022-11-10T04:11:40.568Z,2.10
2022-11-10T04:14:25.594Z,1.97
2022-11-10T04:16:52.146Z,1.90
2022-11-10T04:19:18.574Z,2.47
2022-11-10T04:21:44.957Z,2.20
2022-11-10T04:24:11.836Z,1.97
2022-11-10T04:26:38.835Z,2.00
2022-11-10T04:29:08.632Z,2.37
2022-11-10T04:31:39.484Z,2.40
2022-11-10T04:34:07.774Z,2.00
2022-11-10T04:36:36.029Z,2.47
2022-11-10T04:39:04.708Z,2.07
2022-11-10T04:41:31.723Z,2.57
2022-11-10T04:43:59.232Z,1.90
2022-11-10T04:46:35.393Z,2.30
2022-11-10T04:49:02.939Z,2.33
2022-11-10T04:51:35.969Z,2.00
2022-11-10T04:54:04.001Z,2.73
2022-11-10T04:56:30.443Z,2.57
2022-11-10T04:58:57.386Z,2.10
2022-11-10T05:01:27.408Z,2.23
2022-11-10T05:03:54.703Z,2.37
2022-11-10T05:06:21.428Z,2.37
2022-11-10T05:08:48.169Z,2.60
2022-11-10T05:11:14.875Z,2.20
2022-11-10T05:13:42.035Z,2.40
2022-11-10T05:16:09.100Z,2.47
2022-11-10T05:18:35.614Z,2.27
2022-11-10T05:21:02.035Z,2.43
2022-11-10T05:23:41.912Z,1.97
2022-11-10T05:26:11.511Z,2.60
2022-11-10T05:28:39.470Z,2.40
2022-11-10T05:31:06.031Z,1.83
2022-11-10T05:33:33.085Z,2.13
2022-11-10T05:35:59.803Z,2.50
2022-11-10T05:38:26.406Z,2.20
2022-11-10T05:40:53.040Z,2.67
2022-11-10T05:43:19.893Z,2.23
2022-11-10T05:45:46.509Z,2.30
2022-11-10T05:48:13.006Z,2.90
2022-11-10T05:50:39.420Z,2.50
2022-11-10T05:53:06.070Z,2.13
2022-11-10T05:55:32.496Z,2.67
2022-11-10T05:57:58.930Z,2.37
2022-11-10T06:00:28.541Z,2.60
2022-11-10T06:03:11.479Z,2.97
2022-11-10T06:05:37.857Z,3.20
2022-11-10T06:08:05.624Z,2.80
2022-11-10T06:10:33.752Z,3.07
2022-11-10T06:13:00.282Z,2.67
2022-11-10T06:15:26.933Z,2.10
2022-11-10T06:17:54.026Z,2.40
2022-11-10T06:20:21.052Z,2.87
2022-11-10T06:22:59.403Z,2.43
2022-11-10T06:25:26.010Z,2.10
2022-11-10T06:27:52.332Z,3.30
2022-11-10T06:30:18.746Z,3.03
2022-11-10T06:32:45.250Z,3.23
2022-11-10T06:35:11.946Z,2.37
2022-11-10T06:37:41.232Z,2.30
2022-11-10T06:40:10.743Z,2.17
2022-11-10T06:42:37.130Z,2.43
2022-11-10T06:45:03.867Z,3.60
2022-11-10T06:47:30.224Z,4.70
2022-11-10T06:49:56.558Z,3.80
2022-11-10T06:52:23.528Z,3.60
2022-11-10T06:54:49.928Z,3.37
2022-11-10T06:57:16.830Z,3.53
2022-11-10T06:59:43.290Z,2.90
2022-11-10T07:02:18.768Z,2.93
2022-11-10T07:04:45.110Z,3.40
2022-11-10T07:07:12.087Z,2.47
2022-11-10T07:09:38.698Z,3.80
2022-11-10T07:12:05.949Z,2.43
2022-11-10T07:14:32.402Z,2.77
2022-11-10T07:16:58.771Z,3.03
2022-11-10T07:19:25.280Z,2.80
2022-11-10T07:21:51.899Z,2.60
2022-11-10T07:24:18.202Z,2.57
2022-11-10T07:26:44.664Z,2.67
2022-11-10T07:29:11.384Z,2.50
2022-11-10T07:31:37.745Z,3.17
2022-11-10T07:34:04.075Z,2.57
2022-11-10T07:36:30.481Z,2.83
2022-11-10T07:38:56.825Z,3.27
2022-11-10T07:41:23.213Z,3.30
2022-11-10T07:43:49.673Z,3.00
2022-11-10T07:46:16.003Z,3.27
2022-11-10T07:48:42.715Z,2.77
2022-11-10T07:51:15.448Z,3.10
2022-11-10T07:53:41.954Z,2.60
2022-11-10T07:56:08.341Z,2.67
2022-11-10T07:58:35.506Z,3.00
2022-11-10T08:01:02.233Z,3.40
2022-11-10T08:03:28.844Z,3.13
2022-11-10T08:05:56.029Z,3.30
2022-11-10T08:08:22.400Z,3.00
2022-11-10T08:10:48.870Z,3.67
2022-11-10T08:13:15.300Z,2.83
2022-11-10T08:15:42.129Z,2.80
2022-11-10T08:18:23.115Z,2.70
2022-11-10T08:20:49.990Z,3.10
2022-11-10T08:23:17.689Z,3.07
2022-11-10T08:25:44.576Z,3.17
2022-11-10T08:28:16.413Z,3.00
2022-11-10T08:30:45.080Z,3.40
2022-11-10T08:33:13.562Z,3.90
2022-11-10T08:35:43.291Z,2.60
2022-11-10T08:38:15.944Z,3.33
2022-11-10T08:40:43.904Z,3.70
2022-11-10T08:43:11.819Z,3.00
2022-11-10T08:45:40.470Z,3.63
2022-11-10T08:48:13.420Z,3.60
2022-11-10T08:50:40.501Z,3.40
2022-11-10T08:53:11.469Z,2.77
2022-11-10T08:55:38.059Z,3.67
2022-11-10T08:58:05.445Z,3.20
2022-11-10T09:00:32.898Z,3.13
2022-11-10T09:03:08.269Z,3.23
2022-11-10T09:05:36.068Z,2.80
2022-11-10T09:08:03.895Z,3.47
2022-11-10T09:10:31.446Z,2.83
2022-11-10T09:13:02.076Z,3.13
2022-11-10T09:15:29.574Z,3.40
2022-11-10T09:18:00.028Z,3.00
2022-11-10T09:20:28.387Z,2.50
2022-11-10T09:22:55.819Z,3.37
2022-11-10T09:25:23.334Z,2.83
2022-11-10T09:27:49.944Z,2.43
2022-11-10T09:30:18.083Z,3.20
2022-11-10T09:32:46.593Z,3.13
2022-11-10T09:35:13.649Z,2.90
2022-11-10T09:37:40.446Z,2.90
2022-11-10T09:40:13.095Z,3.27
2022-11-10T09:42:41.483Z,2.97
2022-11-10T09:45:10.756Z,2.90
2022-11-10T09:48:00.379Z,3.57
2022-11-10T09:50:34.567Z,2.50
2022-11-10T09:53:02.507Z,3.50
2022-11-10T09:55:43.220Z,2.90
2022-11-10T09:58:13.100Z,2.60
2022-11-10T10:00:45.507Z,2.87
2022-11-10T10:03:19.948Z,2.90
2022-11-10T10:05:55.962Z,5.73
2022-11-10T10:08:39.466Z,2.67
2022-11-10T10:11:18.853Z,2.73
2022-11-10T10:14:16.255Z,2.60
2022-11-10T10:19:54.887Z,2.63
2022-11-10T10:22:42.620Z,2.70
2022-11-10T10:25:19.022Z,2.33
2022-11-10T10:27:50.096Z,3.43
2022-11-10T10:30:20.620Z,3.30
2022-11-10T10:32:47.310Z,2.70
2022-11-10T10:35:18.490Z,2.57
2022-11-10T10:37:52.202Z,3.03
2022-11-10T10:40:21.347Z,3.30
2022-11-10T10:42:48.341Z,2.97
2022-11-10T10:45:26.750Z,2.50
2022-11-10T10:47:55.167Z,2.90
2022-11-10T10:50:29.964Z,2.87
2022-11-10T10:53:13.800Z,3.23
2022-11-10T10:55:59.783Z,2.77
2022-11-10T10:58:33.033Z,2.73
2022-11-10T11:01:22.059Z,2.33
2022-11-10T11:03:50.768Z,2.13
2022-11-10T11:06:17.022Z,2.50
2022-11-10T11:08:59.175Z,2.10
2022-11-10T11:11:29.178Z,2.50
2022-11-10T11:14:24.088Z,2.47
2022-11-10T11:17:02.436Z,2.03
2022-11-10T11:19:35.424Z,2.07
2022-11-10T11:22:23.834Z,3.07
2022-11-10T11:24:59.486Z,2.30
2022-11-10T11:28:05.517Z,2.10
2022-11-10T11:30:43.959Z,3.30
2022-11-10T11:33:37.407Z,1.77
2022-11-10T11:36:06.807Z,2.60
2022-11-10T11:39:02.783Z,2.60
2022-11-10T11:41:58.525Z,1.90
2022-11-10T11:44:42.585Z,1.90
2022-11-10T11:47:24.057Z,2.50
2022-11-10T11:50:26.402Z,2.47
2022-11-10T11:53:03.028Z,2.13
2022-11-10T11:55:47.524Z,2.17
2022-11-10T11:58:28.769Z,2.40
2022-11-10T12:01:12.923Z,2.20
2022-11-10T12:03:57.574Z,2.33
2022-11-10T12:06:34.468Z,1.80
2022-11-10T12:09:09.996Z,2.43
2022-11-10T12:11:54.716Z,1.97
2022-11-10T12:14:37.676Z,2.40
2022-11-10T12:17:26.516Z,2.10
2022-11-10T12:20:16.553Z,1.93
2022-11-10T12:23:20.762Z,2.00
2022-11-10T12:25:54.380Z,2.60
2022-11-10T12:28:28.964Z,2.17
2022-11-10T12:31:01.908Z,1.87
2022-11-10T12:33:37.471Z,2.10
2022-11-10T12:36:07.779Z,2.17
2022-11-10T12:38:35.000Z,2.67
2022-11-10T12:41:07.751Z,2.70
2022-11-10T12:43:41.144Z,2.43
2022-11-10T12:46:12.693Z,2.17
2022-11-10T12:49:07.736Z,1.70
2022-11-10T12:51:56.240Z,1.90
2022-11-10T12:54:27.410Z,1.90
2022-11-10T12:56:58.723Z,2.00
2022-11-10T12:59:29.956Z,2.90
2022-11-10T13:02:06.295Z,2.63
2022-11-10T13:04:33.619Z,2.17
2022-11-10T13:07:11.918Z,2.13
2022-11-10T13:09:42.565Z,1.97
2022-11-10T13:12:23.531Z,2.20
2022-11-10T13:14:49.977Z,2.13
2022-11-10T13:17:28.582Z,2.10
2022-11-10T13:20:05.258Z,2.17
2022-11-10T13:22:44.240Z,2.20
2022-11-10T13:25:35.726Z,1.90
2022-11-10T13:28:02.290Z,1.87
2022-11-10T13:30:48.684Z,2.17
2022-11-10T13:33:36.720Z,2.10
2022-11-10T13:36:03.498Z,2.37
2022-11-10T13:38:33.074Z,1.50
2022-11-10T13:41:21.881Z,2.13
2022-11-10T13:43:57.751Z,2.00
2022-11-10T13:46:36.244Z,2.27
2022-11-10T13:49:39.861Z,2.00
2022-11-10T13:52:19.118Z,2.10
2022-11-10T13:55:16.387Z,2.00
2022-11-10T13:58:00.994Z,2.30
2022-11-10T14:00:34.652Z,2.10
2022-11-10T14:03:02.740Z,2.40
2022-11-10T14:05:29.316Z,2.30
2022-11-10T14:08:14.723Z,2.63
2022-11-10T14:10:49.468Z,2.40
2022-11-10T14:13:20.317Z,2.37
2022-11-10T14:15:49.772Z,2.30
2022-11-10T14:18:29.141Z,2.13
2022-11-10T14:20:58.049Z,2.20
2022-11-10T14:23:39.076Z,2.10
2022-11-10T14:26:12.480Z,2.20
2022-11-10T14:28:39.027Z,2.13
2022-11-10T14:31:05.860Z,2.33
2022-11-10T14:33:32.490Z,2.23
2022-11-10T14:36:08.982Z,2.20
2022-11-10T14:38:44.599Z,2.33
2022-11-10T14:41:22.430Z,2.23
2022-11-10T14:44:00.985Z,1.97
2022-11-10T14:46:27.454Z,1.93
2022-11-10T14:49:01.359Z,2.23
2022-11-10T14:51:29.514Z,2.00
2022-11-10T14:53:57.547Z,2.30
2022-11-10T14:56:27.316Z,2.10
2022-11-10T14:58:56.301Z,2.20
2022-11-10T15:01:34.966Z,2.10
2022-11-10T15:04:07.586Z,2.00
2022-11-10T15:06:34.920Z,1.90
2022-11-10T15:09:15.680Z,1.90
2022-11-10T15:11:52.780Z,1.90
2022-11-10T15:14:35.378Z,1.97
2022-11-10T15:17:27.947Z,1.53
2022-11-10T15:19:54.607Z,2.23
2022-11-10T15:22:23.617Z,2.10
2022-11-10T15:24:51.785Z,2.00
2022-11-10T15:27:29.103Z,1.37
2022-11-10T15:29:57.828Z,1.90
2022-11-10T15:32:32.837Z,2.33
2022-11-10T15:35:32.030Z,2.03
2022-11-10T15:38:05.740Z,2.03
2022-11-10T15:40:47.012Z,2.27
2022-11-10T15:43:26.779Z,2.10
2022-11-10T15:46:13.753Z,1.97
2022-11-10T15:48:47.385Z,2.43
2022-11-10T15:51:15.846Z,2.17
2022-11-10T15:53:47.621Z,2.10
2022-11-10T15:56:20.058Z,2.33
2022-11-10T15:58:49.744Z,1.97
2022-11-10T16:01:17.611Z,2.20
2022-11-10T16:03:44.887Z,2.07
2022-11-10T16:06:15.852Z,2.10
2022-11-10T16:08:42.882Z,2.30
2022-11-10T16:11:17.974Z,2.50
2022-11-10T16:13:45.034Z,2.20
2022-11-10T16:16:14.497Z,1.93
2022-11-10T16:18:43.856Z,2.30
2022-11-10T16:21:15.391Z,2.50
2022-11-10T16:23:42.667Z,2.33
2022-11-10T16:26:13.416Z,2.27
2022-11-10T16:28:41.935Z,2.63
2022-11-10T16:31:09.405Z,2.77
2022-11-10T16:33:35.800Z,2.97
2022-11-10T16:36:02.207Z,2.50
2022-11-10T16:38:30.519Z,2.70
2022-11-10T16:41:00.801Z,2.77
2022-11-10T16:43:28.627Z,3.27
2022-11-10T16:45:57.600Z,4.30
2022-11-10T16:48:30.409Z,3.13
2022-11-10T16:50:58.870Z,2.80
2022-11-10T16:53:28.010Z,4.63
2022-11-10T16:55:54.328Z,7.30
2022-11-10T16:58:20.921Z,4.53
2022-11-10T17:00:48.704Z,3.40
2022-11-10T17:03:38.668Z,2.70
2022-11-10T17:06:05.296Z,2.50
2022-11-10T17:08:35.277Z,3.10
2022-11-10T17:11:01.714Z,2.80
2022-11-10T17:13:28.066Z,2.77
2022-11-10T17:16:03.215Z,2.50
2022-11-10T17:18:30.021Z,2.73
2022-11-10T17:20:56.474Z,2.50
2022-11-10T17:23:24.404Z,3.17
2022-11-10T17:25:53.973Z,2.70
2022-11-10T17:28:20.444Z,2.60
2022-11-10T17:30:46.875Z,2.83
2022-11-10T17:33:13.363Z,2.87
2022-11-10T17:35:45.848Z,2.43
2022-11-10T17:38:20.177Z,2.47
2022-11-10T17:40:46.641Z,2.70
2022-11-10T17:43:14.226Z,4.13
2022-11-10T17:45:40.839Z,2.53
2022-11-10T17:48:07.621Z,2.83
2022-11-10T17:50:35.780Z,2.97
2022-11-10T17:53:16.087Z,2.67
2022-11-10T17:55:42.460Z,3.03
2022-11-10T17:58:10.205Z,2.67
2022-11-10T18:00:36.801Z,2.97
2022-11-10T18:03:03.554Z,3.00
2022-11-10T18:05:29.888Z,2.50
2022-11-10T18:07:57.706Z,2.50
2022-11-10T18:10:24.203Z,2.93
2022-11-10T18:12:50.539Z,2.77
2022-11-10T18:15:17.776Z,2.90
2022-11-10T18:17:44.503Z,2.90
2022-11-10T18:20:11.784Z,2.90
2022-11-10T18:22:38.533Z,3.20
2022-11-10T18:25:05.772Z,2.60
2022-11-10T18:27:32.368Z,3.10
2022-11-10T18:29:58.889Z,3.67
2022-11-10T18:32:25.323Z,3.50
2022-11-10T18:34:51.792Z,3.77
2022-11-10T18:37:19.108Z,3.60
2022-11-10T18:39:45.572Z,3.37
2022-11-10T18:42:12.553Z,3.20
2022-11-10T18:44:39.287Z,3.50
2022-11-10T18:47:07.453Z,3.10
2022-11-10T18:49:34.017Z,3.90
2022-11-10T18:52:00.644Z,3.73
2022-11-10T18:54:27.475Z,3.43
2022-11-10T18:56:54.016Z,3.67
2022-11-10T18:59:20.728Z,3.87
2022-11-10T19:01:47.157Z,3.23
2022-11-10T19:04:13.985Z,3.17
2022-11-10T19:06:40.877Z,3.53
2022-11-10T19:09:07.423Z,2.90
2022-11-10T19:11:34.431Z,3.30
2022-11-10T19:14:01.980Z,3.30
2022-11-10T19:16:29.220Z,3.70
2022-11-10T19:18:56.695Z,4.10
2022-11-10T19:21:27.575Z,4.43
2022-11-10T19:23:55.889Z,4.40
2022-11-10T19:26:23.175Z,4.40
2022-11-10T19:28:49.962Z,4.47
2022-11-10T19:31:18.225Z,5.20
2022-11-10T19:33:45.944Z,6.43
2022-11-10T19:36:23.903Z,7.90
2022-11-10T19:38:50.764Z,6.93
2022-11-10T19:41:20.775Z,6.57
2022-11-10T19:43:47.929Z,6.90
2022-11-10T19:46:20.129Z,6.90
2022-11-10T19:48:46.737Z,6.67
2022-11-10T19:51:15.378Z,6.40
2022-11-10T19:53:43.033Z,5.23
2022-11-10T19:56:13.735Z,5.87
2022-11-10T19:58:40.560Z,4.43
2022-11-10T20:01:08.910Z,4.60
2022-11-10T20:03:35.447Z,3.90
2022-11-10T20:06:04.735Z,3.87
2022-11-10T20:08:31.766Z,4.20
2022-11-10T20:11:00.402Z,3.60
2022-11-10T20:13:26.841Z,3.67
2022-11-10T20:15:53.148Z,3.77
2022-11-10T20:18:19.724Z,3.47
2022-11-10T20:20:46.204Z,3.53
2022-11-10T20:23:12.670Z,3.70
2022-11-10T20:25:39.256Z,3.60
2022-11-10T20:28:08.738Z,3.50
2022-11-10T20:30:41.446Z,4.00
2022-11-10T20:33:07.832Z,5.43
2022-11-10T20:35:40.726Z,5.50
2022-11-10T20:38:07.109Z,3.80
2022-11-10T20:40:48.902Z,3.50
2022-11-10T20:43:15.469Z,3.80
2022-11-10T20:45:42.605Z,4.07
2022-11-10T20:48:09.015Z,4.17
2022-11-10T20:50:35.559Z,4.43
2022-11-10T20:53:02.536Z,4.10
2022-11-10T20:55:52.236Z,4.13
2022-11-10T20:58:15.656Z,3.80
2022-11-10T21:00:43.861Z,3.87
2022-11-10T21:03:10.470Z,4.03
2022-11-10T21:05:36.847Z,4.10
2022-11-10T21:08:03.225Z,3.63
2022-11-10T21:10:29.641Z,3.50
2022-11-10T21:12:56.040Z,3.23
2022-11-10T21:15:22.562Z,3.37
2022-11-10T21:17:48.891Z,3.80
2022-11-10T21:20:15.749Z,3.97
2022-11-10T21:22:42.052Z,3.80
2022-11-10T21:25:08.879Z,4.00
2022-11-10T21:27:35.361Z,3.33
2022-11-10T21:30:01.894Z,3.67
2022-11-10T21:32:28.383Z,3.80
2022-11-10T21:34:54.816Z,4.00
2022-11-10T21:37:21.243Z,3.50
2022-11-10T21:39:47.659Z,3.50
2022-11-10T21:42:14.021Z,3.70
2022-11-10T21:44:40.372Z,3.47
2022-11-10T21:47:06.854Z,3.53
2022-11-10T21:49:33.375Z,3.53
2022-11-10T21:51:59.737Z,3.40
2022-11-10T21:54:26.080Z,3.67
2022-11-10T21:56:52.596Z,3.53
2022-11-10T21:59:19.279Z,4.10
2022-11-10T22:01:45.821Z,4.00
2022-11-10T22:04:12.651Z,3.80
2022-11-10T22:06:57.728Z,3.47
2022-11-10T22:09:42.866Z,3.73
2022-11-10T22:12:31.204Z,3.73
2022-11-10T22:15:16.696Z,3.67
2022-11-10T22:18:01.435Z,3.53
2022-11-10T22:20:27.844Z,3.50
2022-11-10T22:22:54.184Z,3.90
2022-11-10T22:25:20.544Z,3.80
2022-11-10T22:27:47.786Z,4.07
2022-11-10T22:30:14.220Z,3.97
2022-11-10T22:32:40.728Z,4.00
2022-11-10T22:35:07.589Z,3.53
2022-11-10T22:37:33.977Z,3.80
2022-11-10T22:40:19.186Z,4.00
2022-11-10T22:43:04.397Z,4.00
2022-11-10T22:45:31.179Z,3.87
2022-11-10T22:48:16.132Z,3.83
2022-11-10T22:50:42.669Z,3.47
2022-11-10T22:53:09.105Z,3.60
2022-11-10T22:55:35.559Z,3.80
2022-11-10T22:58:01.958Z,4.17
2022-11-10T23:00:28.375Z,4.30
2022-11-10T23:02:54.694Z,3.93
2022-11-10T23:05:21.178Z,3.80
2022-11-10T23:07:48.466Z,4.77
2022-11-10T23:10:14.827Z,4.07
2022-11-10T23:12:41.203Z,3.90
2022-11-10T23:15:08.212Z,4.10
2022-11-10T23:17:34.655Z,4.07
2022-11-10T23:20:00.985Z,4.50
2022-11-10T23:22:28.029Z,4.50
2022-11-10T23:24:57.339Z,4.10
2022-11-10T23:27:23.933Z,4.20
2022-11-10T23:29:51.788Z,3.93
2022-11-10T23:32:18.307Z,4.77
2022-11-10T23:34:44.997Z,4.47
2022-11-10T23:37:11.409Z,4.43
2022-11-10T23:39:37.963Z,4.40
2022-11-10T23:42:04.289Z,4.50
2022-11-10T23:44:30.608Z,4.57
2022-11-10T23:46:57.084Z,4.60
2022-11-10T23:49:23.402Z,4.67
2022-11-10T23:51:49.784Z,4.40
2022-11-10T23:54:16.283Z,4.10
2022-11-10T23:56:42.604Z,4.67
2022-11-10T23:59:09.478Z,5.00
